Time;durP1;ratioP1;P1;durP2;ratioP2;P2;SDS_P1;SDS_P2;PMS_P1;PMS_P2;Temp;Humidity;BMP_temperature;BMP_pressure;BME280_temperature;BME280_humidity;BME280_pressure;Samples;Min_cycle;Max_cycle;Signal;HPM_P1;HPM_P2
2023/05/07 00:01:56;;;;;;;15.63;13.25;;;14.20;99.90;;;;;;5052620;28;20042;-60
2023/05/07 00:04:22;;;;;;;15.38;12.93;;;14.20;99.90;;;;;;5053310;28;20120;-60
2023/05/07 00:06:48;;;;;;;15.13;13.52;;;14.20;99.90;;;;;;5053078;28;20446;-61
2023/05/07 00:09:13;;;;;;;15.43;13.82;;;14.30;99.90;;;;;;5053587;28;20067;-61
2023/05/07 00:11:39;;;;;;;14.40;13.00;;;14.20;99.90;;;;;;5051713;28;20039;-59
2023/05/07 00:14:05;;;;;;;15.63;14.02;;;14.30;99.90;;;;;;5053481;28;20496;-60
2023/05/07 00:16:30;;;;;;;14.82;13.32;;;14.30;99.90;;;;;;5053077;28;20079;-60
2023/05/07 00:18:56;;;;;;;17.42;14.93;;;14.30;99.90;;;;;;5053444;28;20032;-60
2023/05/07 00:21:22;;;;;;;16.83;15.02;;;14.30;99.90;;;;;;5053302;28;20044;-61
2023/05/07 00:23:47;;;;;;;16.15;13.98;;;14.30;99.90;;;;;;5051955;28;20072;-61
2023/05/07 00:26:13;;;;;;;17.48;14.90;;;14.30;99.90;;;;;;5053021;28;20083;-61
2023/05/07 00:28:39;;;;;;;15.90;13.57;;;14.30;99.90;;;;;;5053729;28;20035;-60
2023/05/07 00:31:04;;;;;;;14.90;13.32;;;14.20;99.90;;;;;;5053238;28;20056;-59
2023/05/07 00:33:30;;;;;;;16.55;14.48;;;14.20;99.90;;;;;;5051620;28;20485;-61
2023/05/07 00:35:56;;;;;;;15.05;13.32;;;14.20;99.90;;;;;;5052808;28;20078;-60
2023/05/07 00:38:21;;;;;;;16.33;14.30;;;14.10;99.90;;;;;;5052853;28;20044;-60
2023/05/07 00:40:47;;;;;;;16.27;13.77;;;14.10;99.90;;;;;;5052720;28;20399;-61
2023/05/07 00:43:13;;;;;;;18.70;14.75;;;14.10;99.90;;;;;;5052945;28;20049;-60
2023/05/07 00:45:39;;;;;;;17.45;14.75;;;14.00;99.90;;;;;;5051420;28;20119;-60
2023/05/07 00:48:05;;;;;;;16.10;13.95;;;14.00;99.90;;;;;;5051385;28;20182;-62
2023/05/07 00:50:32;;;;;;;15.45;13.38;;;14.00;99.90;;;;;;5051308;28;20476;-61
2023/05/07 00:52:58;;;;;;;15.95;13.40;;;14.00;99.90;;;;;;5052131;28;20048;-61
2023/05/07 00:55:24;;;;;;;18.48;12.50;;;14.00;99.90;;;;;;5052982;28;20488;-63
2023/05/07 00:57:50;;;;;;;13.65;11.57;;;13.90;99.90;;;;;;5052355;28;20045;-60
2023/05/07 01:00:17;;;;;;;15.27;12.18;;;13.90;99.90;;;;;;5066931;28;20128;-59
2023/05/07 01:02:44;;;;;;;15.55;12.07;;;13.90;99.90;;;;;;5048524;28;20049;-60
2023/05/07 01:05:12;;;;;;;14.80;12.18;;;13.90;99.90;;;;;;5052249;28;20036;-60
2023/05/07 01:07:41;;;;;;;13.43;11.27;;;13.90;99.90;;;;;;5050515;28;20045;-59
2023/05/07 01:10:08;;;;;;;13.13;10.88;;;13.90;99.90;;;;;;5050799;28;20029;-61
2023/05/07 01:12:37;;;;;;;13.18;10.90;;;13.80;99.90;;;;;;5066792;28;20065;-61
2023/05/07 01:15:05;;;;;;;12.85;11.07;;;13.80;99.90;;;;;;5053507;28;20028;-60
2023/05/07 01:17:41;;;;;;;13.30;9.85;;;13.80;99.90;;;;;;5052258;28;20415;-59
2023/05/07 01:20:08;;;;;;;13.20;10.38;;;13.70;99.90;;;;;;5051813;28;20372;-60
2023/05/07 01:22:40;;;;;;;13.68;10.73;;;13.70;99.90;;;;;;5051945;28;20392;-61
2023/05/07 01:25:07;;;;;;;11.40;10.20;;;13.70;99.90;;;;;;5051700;28;20178;-60
2023/05/07 01:27:35;;;;;;;13.95;10.27;;;13.70;99.90;;;;;;5052647;28;20033;-61
2023/05/07 01:30:01;;;;;;;12.07;10.43;;;13.60;99.90;;;;;;5067148;28;20047;-60
2023/05/07 01:32:38;;;;;;;13.80;10.73;;;13.70;99.90;;;;;;5050480;28;20116;-62
2023/05/07 01:35:09;;;;;;;15.20;10.80;;;13.60;99.90;;;;;;5051313;28;20068;-60
2023/05/07 01:37:35;;;;;;;14.50;11.23;;;13.60;99.90;;;;;;5033408;28;20090;-61
2023/05/07 01:40:03;;;;;;;12.52;10.13;;;13.60;99.90;;;;;;5050024;28;20076;-60
2023/05/07 01:42:29;;;;;;;13.07;10.50;;;13.60;99.90;;;;;;5051815;28;20376;-61
2023/05/07 01:44:55;;;;;;;11.73;10.32;;;13.50;99.90;;;;;;5052879;28;20041;-60
2023/05/07 01:47:21;;;;;;;12.27;10.55;;;13.50;99.90;;;;;;5066734;28;20484;-62
2023/05/07 01:49:47;;;;;;;12.73;10.50;;;13.50;99.90;;;;;;5051488;28;20534;-60
2023/05/07 01:52:13;;;;;;;15.00;11.38;;;13.50;99.90;;;;;;5051177;28;20068;-61
2023/05/07 01:54:39;;;;;;;14.48;12.07;;;13.40;99.90;;;;;;5065962;28;20062;-61
2023/05/07 01:57:04;;;;;;;13.70;11.57;;;13.40;99.90;;;;;;5051100;28;20029;-59
2023/05/07 01:59:30;;;;;;;14.27;11.90;;;13.30;99.90;;;;;;5051093;28;20052;-61
2023/05/07 02:01:56;;;;;;;14.80;12.02;;;13.30;99.90;;;;;;5051187;28;20499;-60
2023/05/07 02:04:21;;;;;;;21.92;13.80;;;13.30;99.90;;;;;;5050973;28;20037;-61
2023/05/07 02:06:47;;;;;;;18.02;13.60;;;13.20;99.90;;;;;;5051911;28;20188;-61
2023/05/07 02:09:14;;;;;;;16.45;13.52;;;13.20;99.90;;;;;;5050184;28;20116;-60
2023/05/07 02:11:40;;;;;;;16.05;13.70;;;13.20;99.90;;;;;;5049266;28;20033;-60
2023/05/07 02:14:05;;;;;;;19.48;14.60;;;13.10;99.90;;;;;;5045100;28;20061;-61
2023/05/07 02:16:31;;;;;;;17.77;14.18;;;13.10;99.90;;;;;;5050047;28;20120;-61
2023/05/07 02:18:58;;;;;;;18.15;14.23;;;13.10;99.90;;;;;;5049509;28;20048;-60
2023/05/07 02:21:24;;;;;;;17.05;14.38;;;13.10;99.90;;;;;;5050584;28;20047;-60
2023/05/07 02:23:50;;;;;;;20.50;14.07;;;13.00;99.90;;;;;;5049572;28;20174;-59
2023/05/07 02:26:16;;;;;;;16.65;14.38;;;12.90;99.90;;;;;;5032619;28;20140;-61
2023/05/07 02:28:41;;;;;;;16.88;15.05;;;12.90;99.90;;;;;;5052292;28;20036;-60
2023/05/07 02:31:07;;;;;;;16.42;14.65;;;12.90;99.90;;;;;;5050873;28;20041;-59
2023/05/07 02:33:34;;;;;;;18.17;15.30;;;12.90;99.90;;;;;;5050520;28;20122;-61
2023/05/07 02:36:10;;;;;;;17.52;14.98;;;12.80;99.90;;;;;;5050682;28;20028;-60
2023/05/07 02:38:36;;;;;;;18.55;14.95;;;12.70;99.90;;;;;;5049361;28;20029;-60
2023/05/07 02:41:02;;;;;;;18.65;15.05;;;12.70;99.90;;;;;;5050525;28;20387;-62
2023/05/07 02:43:28;;;;;;;18.48;15.48;;;12.60;99.90;;;;;;5047583;28;20157;-61
2023/05/07 02:46:05;;;;;;;17.48;15.07;;;12.60;99.90;;;;;;5050524;28;20033;-58
2023/05/07 02:48:31;;;;;;;18.35;15.40;;;12.60;99.90;;;;;;5049772;28;20055;-59
2023/05/07 02:50:57;;;;;;;18.13;15.32;;;12.50;99.90;;;;;;5050401;28;20036;-59
2023/05/07 02:53:25;;;;;;;18.85;16.42;;;12.50;99.90;;;;;;5048968;28;20032;-61
2023/05/07 02:55:52;;;;;;;20.45;16.08;;;12.50;99.90;;;;;;5050151;28;20088;-60
2023/05/07 02:58:18;;;;;;;20.67;16.17;;;12.40;99.90;;;;;;5050176;28;20052;-59
2023/05/07 03:00:43;;;;;;;20.88;17.17;;;12.40;99.90;;;;;;5049722;28;20044;-62
2023/05/07 03:03:10;;;;;;;19.27;15.85;;;12.40;99.90;;;;;;5050266;28;20052;-61
2023/05/07 03:05:36;;;;;;;20.55;16.05;;;12.40;99.90;;;;;;5049809;28;20076;-60
2023/05/07 03:08:02;;;;;;;20.92;16.92;;;12.30;99.90;;;;;;5050148;28;20079;-60
2023/05/07 03:10:28;;;;;;;21.30;16.13;;;12.30;99.90;;;;;;5049899;28;20037;-60
2023/05/07 03:12:53;;;;;;;21.48;16.98;;;12.30;99.90;;;;;;5049014;28;20128;-61
2023/05/07 03:15:19;;;;;;;20.50;17.50;;;12.20;99.90;;;;;;5049292;28;20127;-60
2023/05/07 03:17:45;;;;;;;21.27;17.23;;;12.20;99.90;;;;;;5048423;28;20083;-60
2023/05/07 03:20:11;;;;;;;22.02;17.50;;;12.10;99.90;;;;;;5050340;28;20037;-60
2023/05/07 03:22:36;;;;;;;21.58;17.70;;;12.10;99.90;;;;;;5050052;28;20112;-60
2023/05/07 03:25:02;;;;;;;23.63;18.48;;;12.10;99.90;;;;;;5047703;28;20131;-60
2023/05/07 03:27:28;;;;;;;24.05;18.15;;;12.10;99.90;;;;;;5047853;28;20056;-60
2023/05/07 03:29:53;;;;;;;23.10;18.15;;;12.10;99.90;;;;;;5047376;28;20040;-59
2023/05/07 03:32:19;;;;;;;23.20;18.80;;;12.00;99.90;;;;;;5050860;28;20119;-61
2023/05/07 03:34:45;;;;;;;21.52;18.23;;;12.00;99.90;;;;;;5050015;28;20098;-60
2023/05/07 03:37:10;;;;;;;25.35;19.10;;;12.00;99.90;;;;;;5053854;28;20040;-61
2023/05/07 03:39:36;;;;;;;23.60;18.70;;;12.00;99.90;;;;;;5053892;28;20039;-60
2023/05/07 03:42:02;;;;;;;23.60;19.42;;;12.00;99.90;;;;;;5053858;28;20071;-60
2023/05/07 03:44:28;;;;;;;23.05;19.05;;;11.90;99.90;;;;;;5053923;28;20071;-61
2023/05/07 03:46:53;;;;;;;24.65;19.55;;;11.90;99.90;;;;;;5068885;28;20033;-59
2023/05/07 03:49:19;;;;;;;28.02;20.92;;;11.90;99.90;;;;;;5053025;28;20048;-62
2023/05/07 03:51:45;;;;;;;28.30;20.35;;;11.90;99.90;;;;;;5054100;28;20048;-60
2023/05/07 03:54:10;;;;;;;27.60;20.73;;;11.90;99.90;;;;;;5053650;28;20104;-61
2023/05/07 03:56:36;;;;;;;26.60;20.58;;;11.90;99.90;;;;;;5052607;28;20052;-62
2023/05/07 03:59:02;;;;;;;25.13;20.10;;;11.90;99.90;;;;;;5052000;28;20056;-61
2023/05/07 04:01:27;;;;;;;25.38;19.92;;;11.90;99.90;;;;;;5053547;28;20491;-61
2023/05/07 04:03:53;;;;;;;26.10;20.63;;;11.90;99.90;;;;;;5053870;28;20119;-60
2023/05/07 04:06:19;;;;;;;27.45;21.02;;;11.80;99.90;;;;;;5052321;28;20041;-60
2023/05/07 04:08:44;;;;;;;27.55;21.75;;;11.80;99.90;;;;;;5053427;28;20033;-60
2023/05/07 04:11:10;;;;;;;27.80;21.60;;;11.80;99.90;;;;;;5053137;28;20120;-61
2023/05/07 04:13:35;;;;;;;29.65;21.05;;;11.80;99.90;;;;;;5052141;28;20122;-59
2023/05/07 04:16:03;;;;;;;31.13;22.90;;;11.80;99.90;;;;;;5053114;28;20083;-61
2023/05/07 04:18:29;;;;;;;29.40;22.25;;;11.80;99.90;;;;;;5050594;28;20051;-61
2023/05/07 04:20:54;;;;;;;28.98;23.48;;;11.80;99.90;;;;;;5053232;28;20052;-61
2023/05/07 04:23:20;;;;;;;27.05;21.73;;;11.80;99.90;;;;;;5051937;28;20111;-60
2023/05/07 04:25:46;;;;;;;31.13;23.65;;;11.80;99.90;;;;;;5052729;28;20029;-60
2023/05/07 04:28:12;;;;;;;30.02;22.13;;;11.80;99.90;;;;;;5052691;28;20076;-61
2023/05/07 04:30:38;;;;;;;30.20;23.00;;;11.80;99.90;;;;;;5053143;28;20112;-62
2023/05/07 04:33:04;;;;;;;28.75;23.17;;;11.80;99.90;;;;;;5052737;28;20116;-60
2023/05/07 04:35:30;;;;;;;32.45;23.40;;;11.80;99.90;;;;;;5053564;28;20127;-59
2023/05/07 04:37:55;;;;;;;33.65;23.75;;;11.90;99.90;;;;;;5052837;28;20043;-61
2023/05/07 04:40:21;;;;;;;32.42;25.30;;;11.90;99.90;;;;;;5051539;28;20550;-60
2023/05/07 04:42:46;;;;;;;30.90;23.15;;;11.90;99.90;;;;;;5052679;28;20385;-60
2023/05/07 04:45:12;;;;;;;31.02;24.25;;;11.80;99.90;;;;;;5035643;28;20063;-60
2023/05/07 04:47:38;;;;;;;30.25;25.15;;;11.80;99.90;;;;;;5052510;28;20048;-61
2023/05/07 04:50:05;;;;;;;29.45;23.40;;;11.80;99.90;;;;;;5052771;28;20033;-61
2023/05/07 04:52:31;;;;;;;29.80;24.42;;;11.80;99.90;;;;;;5052832;28;20559;-61
2023/05/07 04:55:00;;;;;;;29.63;23.65;;;11.80;99.90;;;;;;5051316;28;20037;-62
2023/05/07 04:57:26;;;;;;;32.80;24.98;;;11.80;99.90;;;;;;5053238;28;20112;-61
2023/05/07 04:59:53;;;;;;;31.30;23.88;;;11.80;99.90;;;;;;5052211;28;20127;-61
2023/05/07 05:02:19;;;;;;;31.17;24.17;;;11.80;99.90;;;;;;5052222;28;20120;-60
2023/05/07 05:04:45;;;;;;;31.23;23.25;;;11.80;99.90;;;;;;5052400;28;20556;-60
2023/05/07 05:07:10;;;;;;;32.15;24.48;;;11.80;99.90;;;;;;5050627;28;20045;-61
2023/05/07 05:09:36;;;;;;;30.20;24.35;;;11.80;99.90;;;;;;5052515;28;20033;-61
2023/05/07 05:12:01;;;;;;;32.85;23.60;;;11.80;99.90;;;;;;5052404;28;20075;-59
2023/05/07 05:14:27;;;;;;;31.13;22.67;;;11.80;99.90;;;;;;5052027;28;20029;-59
2023/05/07 05:16:53;;;;;;;31.55;23.55;;;11.80;99.90;;;;;;5052371;28;20479;-59
2023/05/07 05:19:19;;;;;;;30.95;24.10;;;11.80;99.90;;;;;;5052125;28;20562;-61
2023/05/07 05:21:44;;;;;;;27.73;22.73;;;11.90;99.90;;;;;;5050821;28;20830;-61
2023/05/07 05:24:10;;;;;;;32.33;23.58;;;11.90;99.90;;;;;;5052087;28;20099;-60
2023/05/07 05:26:35;;;;;;;29.33;23.05;;;11.90;99.90;;;;;;5051580;28;21664;-59
2023/05/07 05:29:01;;;;;;;29.77;22.77;;;12.00;99.90;;;;;;5051687;28;20029;-60
2023/05/07 05:31:27;;;;;;;30.15;23.75;;;11.90;99.90;;;;;;5051000;28;20037;-61
2023/05/07 05:33:52;;;;;;;27.83;22.88;;;12.00;99.90;;;;;;5051150;28;20033;-61
2023/05/07 05:36:18;;;;;;;25.58;21.77;;;12.00;99.90;;;;;;5051138;28;20403;-59
2023/05/07 05:38:44;;;;;;;26.83;21.95;;;12.00;99.90;;;;;;5049338;28;20033;-59
2023/05/07 05:41:10;;;;;;;25.63;21.67;;;12.00;99.90;;;;;;5050409;28;20028;-59
2023/05/07 05:43:36;;;;;;;26.73;21.70;;;12.10;99.90;;;;;;5050354;28;20128;-61
2023/05/07 05:46:02;;;;;;;28.83;22.77;;;12.10;99.90;;;;;;5050448;28;20144;-58
2023/05/07 05:48:29;;;;;;;26.30;21.10;;;12.10;99.90;;;;;;5051428;28;20040;-62
2023/05/07 05:50:54;;;;;;;26.80;21.58;;;12.10;99.90;;;;;;5064965;28;20048;-61
2023/05/07 05:53:20;;;;;;;28.88;22.45;;;12.10;99.90;;;;;;5049471;28;20041;-61
2023/05/07 05:55:46;;;;;;;26.00;21.45;;;12.10;99.90;;;;;;5050233;28;20060;-60
2023/05/07 05:58:11;;;;;;;27.58;21.05;;;12.10;99.90;;;;;;5050787;28;20087;-60
2023/05/07 06:00:37;;;;;;;25.83;20.65;;;12.10;99.90;;;;;;5050684;28;20167;-60
2023/05/07 06:03:03;;;;;;;25.77;20.67;;;12.10;99.90;;;;;;5047454;28;20044;-60
2023/05/07 06:05:28;;;;;;;27.08;20.60;;;12.20;99.90;;;;;;5051206;28;20094;-61
2023/05/07 06:07:54;;;;;;;26.42;20.40;;;12.20;99.90;;;;;;5050697;28;20077;-61
2023/05/07 06:10:20;;;;;;;25.23;21.10;;;12.20;99.90;;;;;;5051454;28;20033;-61
2023/05/07 06:12:45;;;;;;;26.35;20.95;;;12.20;99.90;;;;;;5050738;28;20041;-61
2023/05/07 06:15:11;;;;;;;24.40;20.25;;;12.20;99.90;;;;;;5051264;28;20021;-61
2023/05/07 06:17:37;;;;;;;24.80;19.95;;;12.20;99.90;;;;;;5049638;28;20178;-60
2023/05/07 06:20:02;;;;;;;24.88;20.30;;;12.20;99.90;;;;;;5051470;28;20484;-62
2023/05/07 06:22:28;;;;;;;23.27;18.83;;;12.20;99.90;;;;;;5050417;28;20052;-62
2023/05/07 06:24:57;;;;;;;24.05;19.35;;;12.20;99.90;;;;;;5052277;28;20066;-60
2023/05/07 06:27:22;;;;;;;25.83;20.27;;;12.20;99.90;;;;;;5049360;28;20048;-62
2023/05/07 06:29:48;;;;;;;23.63;19.45;;;12.20;99.90;;;;;;5048812;28;20036;-62
2023/05/07 06:32:14;;;;;;;25.27;19.80;;;12.30;99.90;;;;;;5049140;28;20147;-62
2023/05/07 06:34:40;;;;;;;25.25;20.33;;;12.30;99.90;;;;;;5065644;28;20392;-62
2023/05/07 06:37:06;;;;;;;24.75;19.77;;;12.30;99.90;;;;;;5060338;28;20052;-61
2023/05/07 06:39:32;;;;;;;27.48;19.98;;;12.40;99.90;;;;;;5049471;28;20399;-61
2023/05/07 06:41:58;;;;;;;24.25;19.48;;;12.50;99.90;;;;;;5049921;28;20395;-64
2023/05/07 06:44:24;;;;;;;24.83;20.42;;;12.50;99.90;;;;;;5051937;28;20033;-62
2023/05/07 06:46:49;;;;;;;23.88;19.73;;;12.60;99.90;;;;;;5048760;28;20126;-61
2023/05/07 06:49:15;;;;;;;23.95;18.80;;;12.60;99.90;;;;;;5048826;28;20044;-61
2023/05/07 06:51:41;;;;;;;23.08;19.55;;;12.70;99.90;;;;;;5050173;28;20033;-62
2023/05/07 06:54:07;;;;;;;25.50;20.48;;;12.70;99.90;;;;;;5049910;28;20040;-61
2023/05/07 06:56:33;;;;;;;25.02;19.50;;;12.80;99.90;;;;;;5048740;28;20051;-60
2023/05/07 06:59:03;;;;;;;28.08;21.50;;;12.90;99.90;;;;;;5049837;28;20032;-63
2023/05/07 07:01:29;;;;;;;24.73;19.98;;;12.80;99.90;;;;;;5048388;28;20127;-62
2023/05/07 07:03:54;;;;;;;23.30;19.60;;;12.80;99.90;;;;;;5049596;28;20029;-62
2023/05/07 07:06:20;;;;;;;24.35;20.52;;;12.80;99.90;;;;;;5047305;28;20391;-62
2023/05/07 07:08:46;;;;;;;26.13;20.05;;;12.80;99.90;;;;;;5046719;28;20029;-62
2023/05/07 07:11:12;;;;;;;25.80;21.58;;;12.80;99.90;;;;;;5046882;28;20040;-59
2023/05/07 07:13:37;;;;;;;24.08;20.23;;;12.90;99.90;;;;;;5049411;28;20846;-63
2023/05/07 07:16:03;;;;;;;26.02;21.33;;;12.90;99.90;;;;;;5047118;28;20043;-61
2023/05/07 07:18:29;;;;;;;25.00;20.73;;;13.00;99.90;;;;;;5048035;28;20498;-62
2023/05/07 07:20:54;;;;;;;26.88;20.65;;;13.10;99.90;;;;;;5046672;28;20039;-60
2023/05/07 07:23:20;;;;;;;26.08;20.38;;;13.10;99.90;;;;;;5046604;28;20116;-61
2023/05/07 07:25:46;;;;;;;26.65;20.83;;;13.20;99.90;;;;;;5048408;28;20025;-61
2023/05/07 07:28:12;;;;;;;26.77;21.40;;;13.30;99.90;;;;;;5049588;28;20037;-62
2023/05/07 07:30:39;;;;;;;25.58;21.25;;;13.50;99.90;;;;;;5045502;28;20071;-60
2023/05/07 07:33:05;;;;;;;25.60;20.45;;;13.60;99.90;;;;;;5042868;28;20041;-61
2023/05/07 07:35:31;;;;;;;24.75;20.75;;;13.70;99.90;;;;;;5049344;28;20033;-60
2023/05/07 07:37:57;;;;;;;26.30;21.75;;;13.80;99.90;;;;;;5047249;28;20116;-61
2023/05/07 07:40:23;;;;;;;25.27;20.80;;;13.80;99.90;;;;;;5048572;28;20167;-61
2023/05/07 07:42:49;;;;;;;26.40;20.63;;;13.90;99.90;;;;;;5045696;28;20091;-63
2023/05/07 07:45:14;;;;;;;26.23;20.25;;;13.90;99.90;;;;;;5047770;28;20052;-60
2023/05/07 07:47:40;;;;;;;25.15;20.73;;;14.00;99.90;;;;;;5046477;28;20037;-61
2023/05/07 07:50:07;;;;;;;23.38;20.42;;;14.10;99.90;;;;;;5048792;28;20037;-63
2023/05/07 07:52:33;;;;;;;27.48;22.08;;;14.10;99.90;;;;;;5061558;28;20033;-62
2023/05/07 07:54:59;;;;;;;25.00;21.02;;;14.20;99.90;;;;;;5049259;28;20041;-62
2023/05/07 07:57:24;;;;;;;24.13;20.38;;;14.20;99.90;;;;;;5046192;28;20492;-63
2023/05/07 07:59:50;;;;;;;27.25;21.27;;;14.30;99.90;;;;;;5047291;28;20086;-61
2023/05/07 08:02:16;;;;;;;26.02;20.60;;;14.30;99.90;;;;;;5048465;28;20122;-62
2023/05/07 08:04:45;;;;;;;24.75;20.58;;;14.40;99.90;;;;;;5047425;28;20036;-60
2023/05/07 08:07:11;;;;;;;26.55;21.40;;;14.50;99.90;;;;;;5048925;28;20041;-61
2023/05/07 08:09:40;;;;;;;26.90;21.30;;;14.60;99.90;;;;;;5048194;28;20044;-62
2023/05/07 08:12:06;;;;;;;24.13;21.15;;;14.60;99.90;;;;;;5047378;28;20037;-60
2023/05/07 08:14:33;;;;;;;24.73;21.10;;;14.70;99.90;;;;;;5046563;28;20029;-62
2023/05/07 08:16:58;;;;;;;26.00;20.80;;;14.80;99.90;;;;;;5047253;28;20150;-61
2023/05/07 08:19:24;;;;;;;26.60;21.80;;;14.80;99.90;;;;;;5045637;28;20064;-62
2023/05/07 08:21:50;;;;;;;24.42;21.67;;;14.80;99.90;;;;;;5052452;28;20032;-62
2023/05/07 08:24:16;;;;;;;26.10;20.90;;;14.90;99.90;;;;;;5052111;28;20171;-61
2023/05/07 08:26:41;;;;;;;25.52;21.40;;;14.90;99.90;;;;;;5048851;28;20511;-61
2023/05/07 08:29:07;;;;;;;29.23;21.58;;;15.00;99.90;;;;;;5050887;28;20039;-62
2023/05/07 08:31:33;;;;;;;25.80;21.15;;;15.00;99.90;;;;;;5050956;28;20037;-63
2023/05/07 08:33:59;;;;;;;26.98;21.73;;;15.00;99.90;;;;;;5049426;28;20226;-61
2023/05/07 08:36:25;;;;;;;26.65;21.65;;;15.00;99.90;;;;;;5051441;28;20040;-62
2023/05/07 08:38:51;;;;;;;27.73;22.02;;;15.00;99.90;;;;;;5051494;28;20041;-61
2023/05/07 08:41:17;;;;;;;27.98;21.63;;;15.10;99.90;;;;;;5057892;28;20532;-61
2023/05/07 08:43:50;;;;;;;26.40;21.00;;;15.10;99.90;;;;;;5049469;28;20037;-61
2023/05/07 08:46:17;;;;;;;;;;;15.20;99.90;;;;;;5049486;28;20388;-63
2023/05/07 08:48:42;;;;;;;29.02;22.63;;;15.30;99.90;;;;;;5050736;28;19986;-60
2023/05/07 08:51:12;;;;;;;27.25;21.55;;;15.40;99.90;;;;;;5051406;28;20036;-62
2023/05/07 08:53:41;;;;;;;26.75;21.25;;;15.50;99.90;;;;;;5050861;28;20045;-61
2023/05/07 08:56:08;;;;;;;26.15;21.52;;;15.60;99.90;;;;;;5049699;28;20393;-61
2023/05/07 08:58:35;;;;;;;29.13;22.52;;;15.70;99.90;;;;;;5051372;28;20057;-61
2023/05/07 09:01:09;;;;;;;29.27;22.20;;;15.80;99.90;;;;;;5051369;28;20120;-62
2023/05/07 09:03:36;;;;;;;27.33;22.35;;;15.90;99.90;;;;;;5051068;28;20441;-60
2023/05/07 09:06:01;;;;;;;30.55;21.73;;;15.90;99.90;;;;;;5051436;28;20040;-62
2023/05/07 09:08:27;;;;;;;28.05;22.55;;;16.00;99.90;;;;;;5049861;28;20094;-61
2023/05/07 09:10:53;;;;;;;31.98;22.90;;;16.20;99.90;;;;;;5051467;28;20033;-61
2023/05/07 09:13:19;;;;;;;28.27;22.17;;;16.40;99.90;;;;;;5046968;28;20045;-61
2023/05/07 09:15:45;;;;;;;26.67;21.52;;;16.60;99.90;;;;;;5050275;28;20033;-60
2023/05/07 09:18:12;;;;;;;27.60;21.30;;;16.70;99.90;;;;;;5049595;28;20047;-60
2023/05/07 09:20:38;;;;;;;27.35;21.83;;;16.90;99.90;;;;;;5049624;28;20439;-62
2023/05/07 09:23:04;;;;;;;26.20;21.55;;;17.20;99.90;;;;;;5050882;28;20110;-62
2023/05/07 09:25:34;;;;;;;24.55;20.08;;;17.40;99.90;;;;;;5047766;28;20068;-63
2023/05/07 09:28:01;;;;;;;27.23;22.17;;;17.60;99.90;;;;;;5050144;28;20041;-61
2023/05/07 09:30:34;;;;;;;27.02;22.05;;;18.00;99.90;;;;;;5050893;28;20029;-62
2023/05/07 09:33:02;;;;;;;23.05;19.80;;;18.40;99.90;;;;;;5063905;28;20083;-63
2023/05/07 09:35:28;;;;;;;25.15;20.27;;;18.60;99.90;;;;;;5050720;28;20037;-62
2023/05/07 09:37:55;;;;;;;24.75;21.02;;;18.80;99.90;;;;;;5049388;28;20040;-60
2023/05/07 09:40:27;;;;;;;23.98;20.77;;;19.10;99.90;;;;;;5051391;28;20116;-61
2023/05/07 09:42:53;;;;;;;23.13;19.00;;;19.30;99.90;;;;;;5051406;28;20037;-63
2023/05/07 09:45:36;;;;;;;25.05;19.58;;;19.40;99.90;;;;;;5050796;28;20619;-61
2023/05/07 09:48:05;;;;;;;23.42;19.35;;;19.40;99.90;;;;;;5051020;28;20073;-62
2023/05/07 09:50:48;;;;;;;20.50;18.30;;;19.30;99.90;;;;;;5051222;28;20057;-64
2023/05/07 09:53:14;;;;;;;;;;;19.20;99.90;;;;;;5051826;28;20484;-61
2023/05/07 09:55:40;;;;;;;23.23;19.95;;;19.10;99.90;;;;;;5050330;28;19917;-62
2023/05/07 09:58:06;;;;;;;22.25;18.63;;;19.10;99.90;;;;;;5051610;28;20080;-64
2023/05/07 10:00:32;;;;;;;21.08;18.55;;;19.20;99.90;;;;;;5063499;28;20048;-61
2023/05/07 10:02:59;;;;;;;21.05;18.42;;;19.40;99.90;;;;;;5050302;28;20052;-61
2023/05/07 10:05:25;;;;;;;22.52;19.52;;;19.70;99.90;;;;;;5049333;28;20040;-63
2023/05/07 10:07:52;;;;;;;23.98;19.13;;;19.90;99.90;;;;;;5048679;28;20551;-62
2023/05/07 10:10:19;;;;;;;22.65;19.10;;;20.00;99.90;;;;;;5049263;28;20078;-63
2023/05/07 10:12:45;;;;;;;23.45;19.40;;;20.00;99.90;;;;;;5049644;28;20123;-62
2023/05/07 10:15:12;;;;;;;23.60;19.38;;;19.90;99.90;;;;;;5050812;28;20032;-63
2023/05/07 10:17:39;;;;;;;22.02;17.98;;;19.70;99.90;;;;;;5059004;28;20514;-61
2023/05/07 10:20:06;;;;;;;21.90;18.55;;;19.70;99.90;;;;;;5047911;28;20052;-62
2023/05/07 10:22:46;;;;;;;21.25;18.58;;;19.80;99.90;;;;;;5050447;28;20045;-62
2023/05/07 10:25:25;;;;;;;20.17;17.25;;;20.00;99.90;;;;;;5065211;28;20171;-61
2023/05/07 10:27:53;;;;;;;22.25;18.58;;;20.10;99.90;;;;;;5049690;28;20037;-61
2023/05/07 10:30:19;;;;;;;20.60;17.60;;;20.00;99.90;;;;;;5044418;28;20120;-62
2023/05/07 10:32:55;;;;;;;21.50;17.98;;;19.90;99.90;;;;;;5048253;28;20247;-62
2023/05/07 10:35:25;;;;;;;19.30;16.77;;;19.90;99.90;;;;;;5042442;28;20076;-61
2023/05/07 10:37:51;;;;;;;20.77;17.58;;;19.90;99.90;;;;;;5063825;28;20484;-62
2023/05/07 10:40:19;;;;;;;20.92;17.77;;;19.90;99.90;;;;;;5049437;28;20071;-62
2023/05/07 10:42:59;;;;;;;19.75;17.02;;;19.90;99.90;;;;;;5044347;28;20052;-61
2023/05/07 10:45:25;;;;;;;21.67;18.48;;;20.20;99.90;;;;;;5065170;28;20521;-62
2023/05/07 10:48:10;;;;;;;21.63;17.73;;;20.30;99.90;;;;;;5049656;28;20068;-62
2023/05/07 10:50:43;;;;;;;20.45;17.65;;;20.40;99.90;;;;;;5049920;28;20063;-63
2023/05/07 10:53:18;;;;;;;21.80;18.42;;;20.40;99.90;;;;;;5049444;28;20037;-61
2023/05/07 10:55:46;;;;;;;19.25;17.20;;;20.40;99.90;;;;;;5049456;28;20063;-61
2023/05/07 10:58:28;;;;;;;20.30;17.10;;;20.40;99.90;;;;;;5049361;28;20043;-61
2023/05/07 11:01:03;;;;;;;21.58;18.02;;;20.30;99.90;;;;;;5049707;28;20483;-62
2023/05/07 11:03:29;;;;;;;18.40;16.40;;;20.20;99.90;;;;;;5049787;28;20037;-61
2023/05/07 11:06:12;;;;;;;19.70;16.95;;;20.20;99.90;;;;;;5049771;28;20041;-62
2023/05/07 11:08:56;;;;;;;18.42;16.33;;;20.40;99.90;;;;;;5063411;28;20124;-61
2023/05/07 11:11:48;;;;;;;20.35;16.80;;;20.60;99.90;;;;;;5047190;28;20032;-61
2023/05/07 11:14:14;;;;;;;18.05;15.90;;;20.80;99.90;;;;;;5064568;28;20115;-62
2023/05/07 11:16:41;;;;;;;17.02;15.23;;;20.80;99.90;;;;;;5043522;28;20492;-60
2023/05/07 11:19:07;;;;;;;20.63;16.58;;;21.00;99.90;;;;;;5045410;28;20036;-60
2023/05/07 11:21:40;;;;;;;18.02;14.82;;;21.10;99.90;;;;;;5048261;28;20044;-61
2023/05/07 11:24:07;;;;;;;19.55;15.73;;;21.00;99.90;;;;;;5063730;28;20526;-62
2023/05/07 11:26:47;;;;;;;20.23;15.90;;;21.10;99.90;;;;;;5049535;28;20178;-61
2023/05/07 11:29:22;;;;;;;18.13;16.15;;;21.20;99.90;;;;;;5049252;28;20099;-61
2023/05/07 11:31:52;;;;;;;19.05;16.00;;;21.30;99.90;;;;;;5047537;28;20048;-61
2023/05/07 11:34:23;;;;;;;16.75;14.93;;;21.40;99.90;;;;;;5048067;28;20041;-62
2023/05/07 11:36:49;;;;;;;18.00;16.08;;;21.50;99.90;;;;;;5060370;28;20080;-62
2023/05/07 11:39:26;;;;;;;15.98;14.27;;;21.50;99.90;;;;;;5049808;28;20049;-61
2023/05/07 11:41:52;;;;;;;16.83;15.07;;;21.40;99.90;;;;;;5048731;28;20037;-62
2023/05/07 11:44:17;;;;;;;15.10;13.55;;;21.30;99.90;;;;;;5049075;28;20044;-61
2023/05/07 11:46:45;;;;;;;16.48;14.23;;;21.10;99.90;;;;;;5046096;28;20049;-62
2023/05/07 11:49:10;;;;;;;15.55;13.43;;;21.00;99.90;;;;;;5049494;28;20037;-62
2023/05/07 11:51:36;;;;;;;17.05;15.23;;;21.00;99.90;;;;;;5046382;28;20029;-62
2023/05/07 11:54:04;;;;;;;19.73;16.58;;;21.00;99.90;;;;;;5048534;28;20028;-61
2023/05/07 11:56:34;;;;;;;16.58;14.88;;;21.00;99.90;;;;;;5049733;28;20500;-63
2023/05/07 11:59:00;;;;;;;16.50;14.73;;;21.00;99.90;;;;;;5052570;28;20036;-61
2023/05/07 12:01:25;;;;;;;16.33;14.63;;;20.90;99.90;;;;;;5054415;28;20095;-61
2023/05/07 12:03:51;;;;;;;17.63;14.90;;;20.80;99.90;;;;;;5052138;28;20079;-61
2023/05/07 12:06:17;;;;;;;15.65;13.95;;;20.70;99.90;;;;;;5052156;28;20045;-61
2023/05/07 12:08:44;;;;;;;19.35;15.13;;;20.60;99.90;;;;;;5049003;28;20476;-61
2023/05/07 12:11:22;;;;;;;17.52;15.02;;;20.60;99.90;;;;;;5052414;28;20037;-63
2023/05/07 12:13:47;;;;;;;17.23;14.55;;;20.80;99.90;;;;;;5050907;28;20032;-62
2023/05/07 12:16:13;;;;;;;14.85;13.18;;;20.90;99.90;;;;;;5049646;28;20044;-61
2023/05/07 12:18:40;;;;;;;14.02;12.63;;;20.80;99.90;;;;;;5051636;28;20052;-62
2023/05/07 12:21:06;;;;;;;15.20;13.60;;;20.90;99.90;;;;;;5053121;28;20478;-61
2023/05/07 12:23:34;;;;;;;15.30;13.50;;;20.80;99.90;;;;;;5051864;28;20049;-61
2023/05/07 12:26:00;;;;;;;16.58;14.93;;;20.90;99.90;;;;;;5051013;28;20049;-61
2023/05/07 12:28:25;;;;;;;16.30;13.93;;;21.00;99.90;;;;;;5052240;28;20054;-62